Time;durP1;ratioP1;P1;durP2;ratioP2;P2;SDS_P1;SDS_P2;PMS_P1;PMS_P2;Temp;Humidity;BMP_temperature;BMP_pressure;BME280_temperature;BME280_humidity;BME280_pressure;Samples;Min_cycle;Max_cycle;Signal;HPM_P1;HPM_P2
2024/03/15 00:00:06;;;;;;;4.93;2.00;;;11.10;99.90;;;;;;5021432;28;20076;-66
2024/03/15 00:02:32;;;;;;;4.00;1.75;;;11.00;99.90;;;;;;5020437;28;20041;-66
2024/03/15 00:04:58;;;;;;;4.45;2.60;;;10.90;99.90;;;;;;5021094;28;20022;-66
2024/03/15 00:07:24;;;;;;;3.10;1.85;;;10.80;99.90;;;;;;5022046;28;20481;-66
2024/03/15 00:09:50;;;;;;;5.90;2.35;;;10.80;99.90;;;;;;5021972;28;20049;-66
2024/03/15 00:12:17;;;;;;;6.28;1.60;;;10.80;99.90;;;;;;5027912;28;20026;-66
2024/03/15 00:14:43;;;;;;;2.88;1.67;;;10.80;99.90;;;;;;5020205;28;20026;-66
2024/03/15 00:17:11;;;;;;;8.30;2.05;;;10.80;99.90;;;;;;5011551;28;20536;-66
2024/03/15 00:19:37;;;;;;;5.65;1.98;;;10.90;99.90;;;;;;5025427;28;20048;-66
2024/03/15 00:22:03;;;;;;;5.82;2.05;;;10.90;99.90;;;;;;5027561;28;20040;-66
2024/03/15 00:24:28;;;;;;;2.95;1.70;;;10.90;99.90;;;;;;5038314;28;20490;-66
2024/03/15 00:26:55;;;;;;;3.67;2.22;;;10.90;99.90;;;;;;5023316;28;20036;-66
2024/03/15 00:29:21;;;;;;;5.63;2.00;;;10.90;99.90;;;;;;5033196;28;20030;-66
2024/03/15 00:31:47;;;;;;;4.45;1.60;;;10.80;99.90;;;;;;5021179;28;20061;-66
2024/03/15 00:34:14;;;;;;;2.42;1.55;;;10.80;99.90;;;;;;5022317;28;20033;-66
2024/03/15 00:36:42;;;;;;;3.25;1.75;;;10.80;99.90;;;;;;5027526;28;20393;-66
2024/03/15 00:39:08;;;;;;;5.88;2.65;;;10.80;99.90;;;;;;5018399;28;20052;-66
2024/03/15 00:41:34;;;;;;;4.00;1.77;;;10.80;99.90;;;;;;5022207;28;20098;-66
2024/03/15 00:44:00;;;;;;;2.47;1.50;;;10.70;99.90;;;;;;5019891;28;20032;-66
2024/03/15 00:46:26;;;;;;;3.97;1.92;;;10.70;99.90;;;;;;5024068;28;20026;-66
2024/03/15 00:48:54;;;;;;;3.20;1.55;;;10.70;99.90;;;;;;5022696;28;20082;-66
2024/03/15 00:51:20;;;;;;;4.28;1.83;;;10.60;99.90;;;;;;5020732;28;20092;-66
2024/03/15 00:53:46;;;;;;;8.13;1.80;;;10.60;99.90;;;;;;5018102;28;20050;-66
2024/03/15 00:56:12;;;;;;;2.05;1.63;;;10.60;99.90;;;;;;5021807;28;20029;-66
2024/03/15 00:58:41;;;;;;;2.88;1.85;;;10.60;99.90;;;;;;5020678;28;20382;-66
2024/03/15 01:01:06;;;;;;;3.80;2.25;;;10.60;99.90;;;;;;5017985;28;20021;-66
2024/03/15 01:03:32;;;;;;;3.05;2.10;;;10.60;99.90;;;;;;5020073;28;20144;-66
2024/03/15 01:05:59;;;;;;;6.88;1.90;;;10.50;99.90;;;;;;5018070;28;20088;-66
2024/03/15 01:08:25;;;;;;;8.40;2.08;;;10.50;99.90;;;;;;5028039;28;20029;-65
2024/03/15 01:10:52;;;;;;;4.32;2.45;;;10.40;99.90;;;;;;5023787;28;20037;-66
2024/03/15 01:13:18;;;;;;;3.78;2.30;;;10.40;99.90;;;;;;5026730;28;20424;-66
2024/03/15 01:15:45;;;;;;;3.90;1.90;;;10.40;99.90;;;;;;5024173;28;20035;-66
2024/03/15 01:18:16;;;;;;;8.43;2.55;;;10.30;99.90;;;;;;5021855;28;20030;-66
2024/03/15 01:20:42;;;;;;;6.35;2.25;;;10.40;99.90;;;;;;5016273;28;20466;-66
2024/03/15 01:23:08;;;;;;;5.10;2.20;;;10.30;99.90;;;;;;5035849;28;20033;-66
2024/03/15 01:25:38;;;;;;;3.28;1.83;;;10.30;99.90;;;;;;5020151;28;20029;-66
2024/03/15 01:28:05;;;;;;;4.13;2.28;;;10.30;99.90;;;;;;5020911;28;20025;-66
2024/03/15 01:30:35;;;;;;;4.07;2.63;;;10.30;99.90;;;;;;5023625;28;20025;-67
2024/03/15 01:33:00;;;;;;;3.08;1.80;;;10.20;99.90;;;;;;5022766;28;20030;-67
2024/03/15 01:35:32;;;;;;;8.02;2.05;;;10.20;99.90;;;;;;5023375;28;20056;-70
2024/03/15 01:38:05;;;;;;;5.07;2.08;;;10.20;99.90;;;;;;5027845;28;20017;-70
2024/03/15 01:40:31;;;;;;;4.50;1.98;;;10.20;99.90;;;;;;5022966;28;20557;-70
2024/03/15 01:42:58;;;;;;;2.08;1.40;;;10.20;99.90;;;;;;5023517;28;20204;-70
2024/03/15 01:45:24;;;;;;;2.65;1.45;;;10.20;99.90;;;;;;5028096;28;20477;-70
2024/03/15 01:47:50;;;;;;;4.72;2.53;;;10.10;99.90;;;;;;5028032;28;20026;-70
2024/03/15 01:50:16;;;;;;;3.53;2.10;;;10.10;99.90;;;;;;5023025;28;20347;-70
2024/03/15 01:52:42;;;;;;;2.40;1.70;;;10.10;99.90;;;;;;5038696;28;20125;-70
2024/03/15 01:55:09;;;;;;;5.32;2.10;;;10.10;99.90;;;;;;5022326;28;20056;-70
2024/03/15 01:57:39;;;;;;;4.68;2.30;;;10.20;99.90;;;;;;5027894;28;20588;-70
2024/03/15 02:00:10;;;;;;;5.13;2.25;;;10.20;99.90;;;;;;5026630;28;20041;-70
2024/03/15 02:02:43;;;;;;;3.63;2.25;;;10.20;99.90;;;;;;5013086;28;20056;-71
2024/03/15 02:05:10;;;;;;;4.32;2.35;;;10.20;99.90;;;;;;5014713;28;20037;-70
2024/03/15 02:07:36;;;;;;;5.13;2.55;;;10.20;99.90;;;;;;5031828;28;20535;-70
2024/03/15 02:10:15;;;;;;;4.47;2.35;;;10.20;99.90;;;;;;5024638;28;20045;-71
2024/03/15 02:12:41;;;;;;;3.58;2.33;;;10.30;99.90;;;;;;5037975;28;20033;-71
2024/03/15 02:15:08;;;;;;;7.55;2.60;;;10.30;99.90;;;;;;5025788;28;20121;-71
2024/03/15 02:17:36;;;;;;;4.18;2.35;;;10.30;99.90;;;;;;5028730;28;20406;-71
2024/03/15 02:20:06;;;;;;;4.13;2.00;;;10.30;99.90;;;;;;5023781;28;20117;-71
2024/03/15 02:22:32;;;;;;;9.55;2.17;;;10.40;99.90;;;;;;5036650;28;20026;-70
2024/03/15 02:24:58;;;;;;;4.50;2.70;;;10.40;99.90;;;;;;5023046;28;20018;-70
2024/03/15 02:27:24;;;;;;;4.88;2.25;;;10.40;99.90;;;;;;5029646;28;20658;-70
2024/03/15 02:29:52;;;;;;;10.30;2.20;;;10.40;99.90;;;;;;5022497;28;20029;-70
2024/03/15 02:32:18;;;;;;;3.67;2.20;;;10.40;99.90;;;;;;5026154;28;20072;-70
2024/03/15 02:34:44;;;;;;;4.30;2.38;;;10.40;99.90;;;;;;5019957;28;20116;-70
2024/03/15 02:37:09;;;;;;;4.50;2.25;;;10.30;99.90;;;;;;5024624;28;20104;-70
2024/03/15 02:39:35;;;;;;;3.08;2.13;;;10.40;99.90;;;;;;5025017;28;20032;-70
2024/03/15 02:42:05;;;;;;;4.15;2.03;;;10.40;99.90;;;;;;5022171;28;20025;-70
2024/03/15 02:44:31;;;;;;;4.90;2.42;;;10.40;99.90;;;;;;5018636;28;20124;-71
2024/03/15 02:46:57;;;;;;;3.85;2.63;;;10.40;99.90;;;;;;5020992;28;20105;-70
2024/03/15 02:49:23;;;;;;;3.08;2.00;;;10.40;99.90;;;;;;5025831;28;20064;-70
2024/03/15 02:51:51;;;;;;;4.18;1.98;;;10.40;99.90;;;;;;5014795;28;20045;-70
2024/03/15 02:54:17;;;;;;;4.13;2.47;;;10.40;99.90;;;;;;5003439;28;20050;-71
2024/03/15 02:56:43;;;;;;;5.50;2.42;;;10.50;99.90;;;;;;5007858;28;20034;-71
2024/03/15 02:59:09;;;;;;;10.77;2.95;;;10.50;99.90;;;;;;5036079;28;20040;-70
2024/03/15 03:01:35;;;;;;;4.13;2.50;;;10.50;99.90;;;;;;5026490;28;20532;-70
2024/03/15 03:04:01;;;;;;;4.80;2.35;;;10.50;99.90;;;;;;5026690;28;20026;-70
2024/03/15 03:06:27;;;;;;;8.35;2.80;;;10.50;99.90;;;;;;5019531;28;20031;-70
2024/03/15 03:08:54;;;;;;;5.65;3.15;;;10.50;99.90;;;;;;5028140;28;20025;-70
2024/03/15 03:11:20;;;;;;;7.13;2.78;;;10.50;99.90;;;;;;5024800;28;20116;-70
2024/03/15 03:13:46;;;;;;;5.97;3.15;;;10.50;99.90;;;;;;5026409;28;20018;-70
2024/03/15 03:16:20;;;;;;;3.65;2.50;;;10.50;99.90;;;;;;5023169;28;20033;-70
2024/03/15 03:18:46;;;;;;;5.43;2.70;;;10.60;99.90;;;;;;5020426;28;20052;-70
2024/03/15 03:21:12;;;;;;;8.52;3.20;;;10.60;99.90;;;;;;5020090;28;20034;-70
2024/03/15 03:23:38;;;;;;;4.70;2.55;;;10.60;99.90;;;;;;5034389;28;20508;-70
2024/03/15 03:26:05;;;;;;;7.60;2.50;;;10.60;99.90;;;;;;5025315;28;20037;-70
2024/03/15 03:28:31;;;;;;;6.35;2.45;;;10.60;99.90;;;;;;5026294;28;20030;-70
2024/03/15 03:30:57;;;;;;;5.57;2.45;;;10.60;99.90;;;;;;5026523;28;20044;-70
2024/03/15 03:33:22;;;;;;;6.43;2.22;;;10.60;99.90;;;;;;5021814;28;20030;-70
2024/03/15 03:35:48;;;;;;;4.28;2.28;;;10.60;99.90;;;;;;5027972;28;20104;-70
2024/03/15 03:38:14;;;;;;;9.90;2.78;;;10.60;99.90;;;;;;5024294;28;20034;-70
2024/03/15 03:40:40;;;;;;;6.20;2.55;;;10.60;99.90;;;;;;5026169;28;20351;-70
2024/03/15 03:43:06;;;;;;;3.85;2.00;;;10.60;99.90;;;;;;5036077;28;20096;-70
2024/03/15 03:45:32;;;;;;;4.63;2.00;;;10.60;99.90;;;;;;5026863;28;20025;-70
2024/03/15 03:47:58;;;;;;;7.45;2.88;;;10.60;99.90;;;;;;5022182;28;20099;-70
2024/03/15 03:50:24;;;;;;;4.78;3.10;;;10.60;99.90;;;;;;5021154;28;20541;-70
2024/03/15 03:52:52;;;;;;;6.88;2.85;;;10.60;99.90;;;;;;5019125;28;20117;-70
2024/03/15 03:55:18;;;;;;;4.65;2.35;;;10.60;99.90;;;;;;5020881;28;20030;-70
2024/03/15 03:57:45;;;;;;;8.48;2.40;;;10.60;99.90;;;;;;5019971;28;20032;-70
2024/03/15 04:00:14;;;;;;;6.78;2.03;;;10.70;99.90;;;;;;5026201;28;20041;-70
2024/03/15 04:02:50;;;;;;;6.05;2.85;;;10.60;99.90;;;;;;5025002;28;20018;-70
2024/03/15 04:05:18;;;;;;;5.35;2.47;;;10.70;99.90;;;;;;5021092;28;20029;-70
2024/03/15 04:07:46;;;;;;;4.20;2.30;;;10.60;99.90;;;;;;5020058;28;20104;-71
2024/03/15 04:10:13;;;;;;;3.60;2.10;;;10.60;99.90;;;;;;5019720;28;20045;-70
2024/03/15 04:12:40;;;;;;;2.75;1.73;;;10.70;99.90;;;;;;5025060;28;20044;-70
2024/03/15 04:15:10;;;;;;;3.75;1.75;;;10.70;99.90;;;;;;5018569;28;20034;-70
2024/03/15 04:17:42;;;;;;;3.83;2.13;;;10.70;99.90;;;;;;5018394;28;20497;-70
2024/03/15 04:20:16;;;;;;;26.58;2.47;;;10.60;99.90;;;;;;5025088;28;20045;-70
2024/03/15 04:22:45;;;;;;;4.60;2.08;;;10.60;99.90;;;;;;5024418;28;20064;-70
2024/03/15 04:25:19;;;;;;;3.40;2.22;;;10.60;99.90;;;;;;5024738;28;20033;-70
2024/03/15 04:27:49;;;;;;;6.50;2.60;;;10.60;99.90;;;;;;5024784;28;20022;-70
2024/03/15 04:30:15;;;;;;;7.95;2.63;;;10.60;99.90;;;;;;5019682;28;20083;-70
2024/03/15 04:32:46;;;;;;;5.28;2.85;;;10.50;99.90;;;;;;5018664;28;20052;-71
2024/03/15 04:35:16;;;;;;;5.00;2.17;;;10.50;99.90;;;;;;5021501;28;20061;-70
2024/03/15 04:37:43;;;;;;;5.40;2.63;;;10.50;99.90;;;;;;5022229;28;20342;-70
2024/03/15 04:40:10;;;;;;;3.85;1.83;;;10.60;99.90;;;;;;5024451;28;20090;-70
2024/03/15 04:42:36;;;;;;;4.22;2.53;;;10.60;99.90;;;;;;5016319;28;20030;-70
2024/03/15 04:45:09;;;;;;;5.03;2.05;;;10.60;99.90;;;;;;5016545;28;20502;-70
2024/03/15 04:47:42;;;;;;;4.50;2.13;;;10.50;99.90;;;;;;5021101;28;20021;-70
2024/03/15 04:50:09;;;;;;;2.42;1.40;;;10.50;99.90;;;;;;5015825;28;20160;-70
2024/03/15 04:52:36;;;;;;;2.90;1.75;;;10.40;99.90;;;;;;5018206;28;20025;-70
2024/03/15 04:55:03;;;;;;;4.18;2.47;;;10.40;99.90;;;;;;5022878;28;20018;-70
2024/03/15 04:57:29;;;;;;;4.68;2.17;;;10.40;99.90;;;;;;5020666;28;20030;-70
2024/03/15 04:59:55;;;;;;;3.25;1.75;;;10.40;99.90;;;;;;5020151;28;20368;-70
2024/03/15 05:02:21;;;;;;;6.85;1.50;;;10.40;99.90;;;;;;5023709;28;20033;-70
2024/03/15 05:04:48;;;;;;;4.68;2.05;;;10.30;99.90;;;;;;5020368;28;20429;-70
2024/03/15 05:07:15;;;;;;;3.72;1.95;;;10.30;99.90;;;;;;5018907;28;20481;-70
2024/03/15 05:09:41;;;;;;;2.10;1.60;;;10.20;99.90;;;;;;5020948;28;20030;-70
2024/03/15 05:12:08;;;;;;;8.70;3.03;;;10.20;99.90;;;;;;5018570;28;20099;-71
2024/03/15 05:14:35;;;;;;;4.03;2.15;;;10.20;99.90;;;;;;5017729;28;20367;-70
2024/03/15 05:17:01;;;;;;;2.92;1.50;;;10.10;99.90;;;;;;5017615;28;20030;-70
2024/03/15 05:19:27;;;;;;;3.92;2.03;;;10.00;99.90;;;;;;5025510;28;20064;-70
2024/03/15 05:21:52;;;;;;;7.15;1.95;;;10.10;99.90;;;;;;5016442;28;20133;-70
2024/03/15 05:24:18;;;;;;;9.10;2.60;;;10.10;99.90;;;;;;5008447;28;20482;-70
2024/03/15 05:26:47;;;;;;;4.40;2.50;;;10.10;99.90;;;;;;5014866;28;20044;-71
2024/03/15 05:29:14;;;;;;;3.20;1.85;;;10.10;99.90;;;;;;5017812;28;20025;-70
2024/03/15 05:31:40;;;;;;;3.28;1.70;;;10.10;99.90;;;;;;5018675;28;20709;-71
2024/03/15 05:34:07;;;;;;;4.75;1.92;;;10.10;99.90;;;;;;5019856;28;20029;-70
2024/03/15 05:36:35;;;;;;;3.92;1.85;;;10.10;99.90;;;;;;5019884;28;20030;-70
2024/03/15 05:39:01;;;;;;;6.80;3.08;;;10.10;99.90;;;;;;5018622;28;20026;-70
2024/03/15 05:41:27;;;;;;;6.70;1.67;;;10.10;99.90;;;;;;5020390;28;20034;-70
2024/03/15 05:43:53;;;;;;;4.10;2.17;;;10.10;99.90;;;;;;5017870;28;20113;-70
2024/03/15 05:46:20;;;;;;;5.57;2.03;;;10.00;99.90;;;;;;5017864;28;20117;-70
2024/03/15 05:48:46;;;;;;;4.88;2.17;;;10.10;99.90;;;;;;5019733;28;20027;-69
2024/03/15 05:51:12;;;;;;;3.38;1.92;;;10.00;99.90;;;;;;5017956;28;20104;-65
2024/03/15 05:53:37;;;;;;;6.72;2.17;;;9.90;99.90;;;;;;5024661;28;20041;-66
2024/03/15 05:56:04;;;;;;;3.67;1.83;;;9.90;99.90;;;;;;5017984;28;20040;-66
2024/03/15 05:58:29;;;;;;;5.13;2.15;;;10.00;99.90;;;;;;5019090;28;20083;-65
2024/03/15 06:00:55;;;;;;;7.30;2.65;;;9.90;99.90;;;;;;5015591;28;20026;-65
2024/03/15 06:03:21;;;;;;;3.33;2.03;;;9.90;99.90;;;;;;5015327;28;20034;-66
2024/03/15 06:05:47;;;;;;;6.10;2.00;;;9.90;99.90;;;;;;5018052;28;20029;-65
2024/03/15 06:08:13;;;;;;;5.30;2.25;;;9.90;99.90;;;;;;5015934;28;20021;-64
2024/03/15 06:10:38;;;;;;;4.40;2.45;;;10.00;99.90;;;;;;5013565;28;20029;-67
2024/03/15 06:13:05;;;;;;;4.25;2.10;;;10.00;99.90;;;;;;5010595;28;20087;-69
2024/03/15 06:15:31;;;;;;;4.07;2.10;;;10.10;99.90;;;;;;5003244;28;20044;-65
2024/03/15 06:17:56;;;;;;;3.17;1.50;;;10.10;99.90;;;;;;5013477;28;20034;-66
2024/03/15 06:20:22;;;;;;;2.83;1.45;;;10.10;99.90;;;;;;5012983;28;20034;-66
2024/03/15 06:22:48;;;;;;;1.80;1.25;;;10.20;99.90;;;;;;5006542;28;20486;-66
2024/03/15 06:25:13;;;;;;;3.85;1.75;;;10.20;99.90;;;;;;5005392;28;20034;-65
2024/03/15 06:27:39;;;;;;;5.40;2.08;;;10.30;99.90;;;;;;4995224;28;20080;-66
2024/03/15 06:30:08;;;;;;;2.13;1.40;;;10.30;99.90;;;;;;5007710;28;20050;-65
2024/03/15 06:32:37;;;;;;;4.63;2.05;;;10.30;99.90;;;;;;5004257;28;20528;-65
2024/03/15 06:35:18;;;;;;;7.18;2.15;;;10.40;99.90;;;;;;4997702;28;20491;-65
2024/03/15 06:37:45;;;;;;;;;;;10.40;99.90;;;;;;5014945;28;20034;-65
2024/03/15 06:40:30;;;;;;;4.50;2.40;;;10.50;99.90;;;;;;5008687;28;20012;-65
2024/03/15 06:45:44;;;;;;;7.80;2.63;;;10.60;99.90;;;;;;5002181;28;20564;-67
2024/03/15 06:48:17;;;;;;;3.85;1.92;;;10.80;99.90;;;;;;5002412;28;20109;-65
2024/03/15 06:51:00;;;;;;;4.57;2.00;;;10.90;99.90;;;;;;5009014;28;20033;-66
2024/03/15 06:53:26;;;;;;;2.83;1.45;;;11.00;99.90;;;;;;5000447;28;20045;-66
2024/03/15 06:55:56;;;;;;;2.60;1.50;;;11.10;99.90;;;;;;4999826;28;20133;-65
2024/03/15 06:58:22;;;;;;;9.93;2.40;;;11.30;99.90;;;;;;4997470;28;20778;-65
2024/03/15 07:00:48;;;;;;;5.85;1.67;;;11.50;99.90;;;;;;4996311;28;20127;-65
2024/03/15 07:03:16;;;;;;;3.33;1.65;;;11.70;99.90;;;;;;5010280;28;20042;-65
2024/03/15 07:05:42;;;;;;;3.75;1.70;;;11.90;99.90;;;;;;4997259;28;20120;-66
2024/03/15 07:08:08;;;;;;;3.75;1.90;;;12.00;99.90;;;;;;4996966;28;20049;-65
2024/03/15 07:10:34;;;;;;;2.35;1.27;;;12.30;99.90;;;;;;5012804;28;20037;-65
2024/03/15 07:13:01;;;;;;;7.95;1.50;;;12.40;99.90;;;;;;5004889;28;20046;-65
2024/03/15 07:15:28;;;;;;;3.80;1.55;;;12.60;99.90;;;;;;4997549;28;20202;-65
2024/03/15 07:17:54;;;;;;;5.13;1.98;;;12.80;99.90;;;;;;4980172;28;20449;-65
2024/03/15 07:20:20;;;;;;;10.02;1.95;;;12.90;99.90;;;;;;4997743;28;20260;-65
2024/03/15 07:22:45;;;;;;;2.67;1.58;;;13.10;99.90;;;;;;4997771;28;20629;-68
2024/03/15 07:25:11;;;;;;;3.85;2.05;;;13.20;99.90;;;;;;5012274;28;20053;-61
2024/03/15 07:27:38;;;;;;;5.25;1.55;;;13.20;99.90;;;;;;5007084;28;20105;-61
2024/03/15 07:30:05;;;;;;;4.78;2.20;;;13.20;99.90;;;;;;5021827;28;20613;-61
2024/03/15 07:32:31;;;;;;;6.25;1.92;;;13.20;99.90;;;;;;5004778;23;20077;-69
2024/03/15 07:34:57;;;;;;;3.95;1.45;;;13.30;99.90;;;;;;4993209;28;20038;-70
2024/03/15 07:37:23;;;;;;;3.83;1.63;;;13.20;99.90;;;;;;4983031;28;20027;-71
2024/03/15 07:39:49;;;;;;;10.13;1.65;;;13.30;99.90;;;;;;4986681;28;20057;-71
2024/03/15 07:42:14;;;;;;;5.28;1.40;;;13.30;99.90;;;;;;4981085;28;20078;-70
2024/03/15 07:44:40;;;;;;;5.97;1.80;;;13.40;99.90;;;;;;4991341;28;20117;-70
2024/03/15 07:47:06;;;;;;;2.17;1.38;;;13.40;99.90;;;;;;4980043;28;20450;-71
2024/03/15 07:49:33;;;;;;;2.33;1.42;;;13.50;99.90;;;;;;4979959;28;20031;-70
2024/03/15 07:51:58;;;;;;;2.47;1.40;;;13.50;99.90;;;;;;4966297;28;20110;-70
2024/03/15 07:54:25;;;;;;;3.28;1.33;;;13.60;99.90;;;;;;4971606;28;20113;-70
2024/03/15 07:56:54;;;;;;;4.15;1.63;;;13.70;99.90;;;;;;4968994;28;20049;-71
2024/03/15 07:59:20;;;;;;;3.78;1.15;;;13.80;99.90;;;;;;4985964;28;20093;-72
2024/03/15 08:01:46;;;;;;;6.95;1.30;;;13.80;99.90;;;;;;4967790;28;20015;-71
2024/03/15 08:04:14;;;;;;;6.38;1.25;;;13.90;99.90;;;;;;4977726;28;20542;-72
2024/03/15 08:06:40;;;;;;;1.92;1.20;;;13.90;99.90;;;;;;4963166;28;20031;-70
2024/03/15 08:09:06;;;;;;;1.65;1.15;;;13.90;99.90;;;;;;4969888;28;20027;-72
2024/03/15 08:11:36;;;;;;;5.75;1.83;;;13.90;99.90;;;;;;4971063;28;20035;-71
2024/03/15 08:14:08;;;;;;;3.28;1.50;;;13.90;99.90;;;;;;4972315;28;20034;-74
2024/03/15 08:16:34;;;;;;;1.60;0.90;;;13.80;99.90;;;;;;4973216;28;20025;-71
2024/03/15 08:19:04;;;;;;;4.10;1.23;;;13.90;99.90;;;;;;4968444;28;20043;-71
2024/03/15 08:21:30;;;;;;;4.63;1.13;;;13.90;99.90;;;;;;4969738;28;20019;-71
2024/03/15 08:24:03;;;;;;;1.50;0.95;;;13.80;99.90;;;;;;4968606;28;20368;-71
2024/03/15 08:26:31;;;;;;;1.63;0.82;;;13.90;99.90;;;;;;4962364;28;20019;-71
2024/03/15 08:28:56;;;;;;;1.98;1.65;;;13.80;99.90;;;;;;4977835;28;20455;-72
2024/03/15 08:31:22;;;;;;;4.75;1.35;;;13.90;99.90;;;;;;4978123;28;20035;-71
2024/03/15 08:33:48;;;;;;;2.10;1.02;;;13.90;99.90;;;;;;4967274;28;20031;-71
2024/03/15 08:36:13;;;;;;;4.03;1.63;;;13.90;99.90;;;;;;4987347;28;20030;-71
2024/03/15 08:38:40;;;;;;;5.15;1.25;;;13.90;99.90;;;;;;4966075;28;20057;-71
2024/03/15 08:41:06;;;;;;;3.00;1.55;;;14.00;99.90;;;;;;4972109;28;20113;-72
2024/03/15 08:43:32;;;;;;;3.63;1.33;;;14.10;99.90;;;;;;4971728;28;20022;-72
2024/03/15 08:45:59;;;;;;;5.90;1.30;;;14.10;99.90;;;;;;4972102;28;20371;-64
2024/03/15 08:48:27;;;;;;;1.27;0.82;;;14.10;99.90;;;;;;4976297;28;20027;-62
2024/03/15 08:50:53;;;;;;;2.38;1.20;;;14.10;99.90;;;;;;4971069;28;20062;-63
2024/03/15 08:53:19;;;;;;;2.83;1.08;;;14.00;99.90;;;;;;4967711;28;20065;-59
2024/03/15 08:55:45;;;;;;;5.68;1.52;;;14.00;99.90;;;;;;4986318;28;20023;-60
2024/03/15 08:58:11;;;;;;;2.10;1.15;;;14.00;99.90;;;;;;4972574;28;20073;-61
2024/03/15 09:00:39;;;;;;;4.13;1.92;;;14.00;99.90;;;;;;4983987;28;20023;-61
2024/03/15 09:03:06;;;;;;;2.47;1.27;;;14.00;99.90;;;;;;4979561;28;20074;-59
2024/03/15 09:05:32;;;;;;;3.53;1.55;;;13.90;99.90;;;;;;4972560;28;20030;-60
2024/03/15 09:08:00;;;;;;;5.25;1.30;;;13.90;99.90;;;;;;4967369;28;20037;-60
2024/03/15 09:10:27;;;;;;;4.68;1.80;;;14.00;99.90;;;;;;4964867;28;20118;-60
2024/03/15 09:12:53;;;;;;;3.60;1.23;;;13.90;99.90;;;;;;4966990;28;20743;-60
2024/03/15 09:15:22;;;;;;;9.60;1.45;;;13.90;99.90;;;;;;4972341;28;20026;-61
2024/03/15 09:17:49;;;;;;;2.38;1.15;;;13.90;99.90;;;;;;4966844;28;20030;-59
2024/03/15 09:20:27;;;;;;;3.13;1.20;;;13.80;99.90;;;;;;4973961;28;20058;-60
2024/03/15 09:22:53;;;;;;;9.02;1.67;;;13.80;99.90;;;;;;4976643;28;20026;-61
2024/03/15 09:25:22;;;;;;;2.75;1.00;;;13.80;99.90;;;;;;4971655;28;20023;-63
2024/03/15 09:27:52;;;;;;;3.40;0.60;;;13.60;99.90;;;;;;4967120;28;20093;-71
2024/03/15 09:30:20;;;;;;;1.43;0.93;;;13.60;99.90;;;;;;4971328;28;20035;-71
2024/03/15 09:32:48;;;;;;;1.35;0.90;;;13.60;99.90;;;;;;4965458;28;20348;-72
2024/03/15 09:35:14;;;;;;;1.88;1.23;;;13.60;99.90;;;;;;4970474;28;20027;-72
2024/03/15 09:37:50;;;;;;;2.30;0.90;;;13.50;99.90;;;;;;4972269;28;20089;-71
2024/03/15 09:40:18;;;;;;;1.38;0.90;;;13.50;99.90;;;;;;4989624;28;20058;-71
2024/03/15 09:42:47;;;;;;;4.78;0.95;;;13.40;99.90;;;;;;4981739;28;20479;-71
2024/03/15 09:45:16;;;;;;;4.25;1.73;;;13.20;99.90;;;;;;4981695;28;20515;-69
2024/03/15 09:47:43;;;;;;;5.20;1.13;;;13.00;99.90;;;;;;4965289;28;20448;-70
2024/03/15 09:50:16;;;;;;;4.03;1.58;;;13.00;99.90;;;;;;4955490;28;20035;-70
2024/03/15 09:52:46;;;;;;;4.07;1.27;;;12.80;99.90;;;;;;4969107;28;20073;-70
2024/03/15 09:55:16;;;;;;;3.17;1.17;;;12.70;99.90;;;;;;4958505;28;20043;-70
2024/03/15 09:57:48;;;;;;;2.13;1.00;;;12.70;99.90;;;;;;4980635;28;20066;-69
2024/03/15 10:00:17;;;;;;;2.10;1.20;;;12.60;99.90;;;;;;4975608;28;20026;-69
2024/03/15 10:02:47;;;;;;;1.75;1.00;;;12.60;99.90;;;;;;4969910;28;20035;-70
2024/03/15 10:05:17;;;;;;;5.50;1.63;;;12.60;99.90;;;;;;4973878;28;20396;-69
2024/03/15 10:07:43;;;;;;;4.05;1.40;;;12.60;99.90;;;;;;4953639;28;20031;-69
2024/03/15 10:10:14;;;;;;;2.45;1.20;;;12.60;99.90;;;;;;4975627;28;20085;-68
2024/03/15 10:12:41;;;;;;;4.53;1.55;;;12.60;99.90;;;;;;4970451;28;20411;-68
2024/03/15 10:15:12;;;;;;;3.88;1.25;;;12.70;99.90;;;;;;4975218;28;20027;-68
2024/03/15 10:17:48;;;;;;;;;;;12.70;99.90;;;;;;4974282;28;20529;-69
2024/03/15 10:20:20;;;;;;;1.80;1.10;;;12.80;99.90;;;;;;4989089;28;19973;-69
2024/03/15 10:22:48;;;;;;;;;;;12.90;99.90;;;;;;4969805;28;20077;-68
2024/03/15 10:25:18;;;;;;;8.18;1.38;;;13.00;99.90;;;;;;4973916;28;19910;-68
2024/03/15 10:27:56;;;;;;;1.45;0.80;;;13.00;99.90;;;;;;4968720;28;20392;-68
2024/03/15 10:30:28;;;;;;;3.75;1.10;;;13.10;99.90;;;;;;4983403;28;20097;-68
2024/03/15 10:33:03;;;;;;;8.63;1.25;;;13.10;99.90;;;;;;4975453;28;20060;-69
2024/03/15 10:35:29;;;;;;;2.25;1.13;;;13.20;99.90;;;;;;4971187;28;20074;-68
2024/03/15 10:37:55;;;;;;;8.95;1.67;;;13.20;99.90;;;;;;4979167;28;20090;-68
2024/03/15 10:40:26;;;;;;;1.30;0.90;;;13.30;99.90;;;;;;4985835;28;20140;-68
2024/03/15 10:43:02;;;;;;;1.50;0.90;;;13.50;99.90;;;;;;4972885;28;20109;-69
2024/03/15 10:45:29;;;;;;;4.47;0.75;;;13.60;99.90;;;;;;4973696;28;20510;-69
2024/03/15 10:47:56;;;;;;;1.35;0.70;;;13.70;99.90;;;;;;4952315;28;20158;-68
2024/03/15 10:50:27;;;;;;;3.13;1.25;;;13.80;99.90;;;;;;4989351;28;20042;-69
2024/03/15 10:52:55;;;;;;;1.20;0.50;;;13.90;99.90;;;;;;4982578;28;20034;-69
2024/03/15 10:55:26;;;;;;;2.25;0.60;;;14.00;99.90;;;;;;4992754;28;20109;-69
2024/03/15 10:58:05;;;;;;;0.80;0.50;;;14.00;99.90;;;;;;4973404;28;20031;-68
2024/03/15 11:00:32;;;;;;;1.08;0.73;;;14.00;99.90;;;;;;4976838;28;20049;-69
2024/03/15 11:03:15;;;;;;;5.35;0.95;;;14.00;99.90;;;;;;4976357;28;20031;-69
2024/03/15 11:05:41;;;;;;;2.33;1.45;;;13.80;99.90;;;;;;4967475;28;20030;-68
2024/03/15 11:08:16;;;;;;;1.38;0.90;;;13.90;99.90;;;;;;4968490;28;20027;-68
2024/03/15 11:10:59;;;;;;;4.82;0.90;;;14.00;99.90;;;;;;4989692;28;20400;-68
2024/03/15 11:13:25;;;;;;;3.17;0.95;;;13.90;99.90;;;;;;4967500;28;20431;-68
2024/03/15 11:16:01;;;;;;;0.95;0.70;;;14.00;99.90;;;;;;4989146;28;20039;-70
2024/03/15 11:18:45;;;;;;;3.03;1.23;;;14.00;99.90;;;;;;4965435;28;20035;-69
2024/03/15 11:21:21;;;;;;;2.40;1.13;;;13.90;99.90;;;;;;4973901;28;20069;-69
2024/03/15 11:23:47;;;;;;;2.05;0.75;;;13.80;99.90;;;;;;4973970;28;20030;-69
2024/03/15 11:26:20;;;;;;;2.75;1.25;;;13.70;99.90;;;;;;4973512;28;20038;-69
2024/03/15 11:28:54;;;;;;;1.35;0.98;;;13.80;99.90;;;;;;4973932;28;20065;-69
2024/03/15 11:31:28;;;;;;;1.42;0.70;;;13.70;99.90;;;;;;4972422;28;20039;-69
2024/03/15 11:33:57;;;;;;;3.33;1.15;;;13.70;99.90;;;;;;4991584;28;20046;-69
2024/03/15 11:36:28;;;;;;;5.55;1.10;;;13.80;99.90;;;;;;4990491;28;20048;-69
2024/03/15 11:38:53;;;;;;;2.53;1.03;;;13.90;99.90;;;;;;4984650;28;20057;-69
2024/03/15 11:41:21;;;;;;;9.07;2.38;;;13.90;99.90;;;;;;4990987;28;20325;-69
2024/03/15 11:43:48;;;;;;;2.35;1.05;;;14.00;99.90;;;;;;4982725;28;20028;-69
2024/03/15 11:46:15;;;;;;;6.25;0.88;;;14.00;99.90;;;;;;4983502;28;20026;-70
2024/03/15 11:48:41;;;;;;;2.35;0.68;;;14.00;99.90;;;;;;4966837;28;20023;-70
2024/03/15 11:51:08;;;;;;;1.63;1.02;;;14.00;99.90;;;;;;4973542;28;20041;-69
2024/03/15 11:53:37;;;;;;;2.15;0.80;;;14.20;99.90;;;;;;4975845;28;20118;-69
2024/03/15 11:56:04;;;;;;;4.13;0.82;;;14.00;99.90;;;;;;4970079;28;20034;-69
2024/03/15 11:58:30;;;;;;;2.60;0.93;;;14.00;99.90;;;;;;4969622;28;20034;-69
2024/03/15 12:00:55;;;;;;;2.22;1.13;;;14.00;99.90;;;;;;4984043;28;20447;-69
2024/03/15 12:03:24;;;;;;;1.55;0.93;;;14.00;99.90;;;;;;4967724;28;20043;-69
2024/03/15 12:05:50;;;;;;;2.08;0.95;;;14.10;99.90;;;;;;4972916;28;20027;-69
2024/03/15 12:08:27;;;;;;;1.50;0.82;;;14.00;99.90;;;;;;4973557;28;20084;-68
2024/03/15 12:10:54;;;;;;;2.45;1.27;;;13.90;99.90;;;;;;4956360;28;20035;-73
2024/03/15 12:13:21;;;;;;;1.48;0.93;;;13.90;99.90;;;;;;4970418;28;20488;-72
2024/03/15 12:15:50;;;;;;;3.25;1.17;;;13.90;99.90;;;;;;4971275;28;20034;-72
2024/03/15 12:18:21;;;;;;;1.83;1.00;;;13.90;99.90;;;;;;4967397;28;20113;-72
2024/03/15 12:20:50;;;;;;;3.28;1.02;;;13.90;99.90;;;;;;4971923;28;20023;-74
2024/03/15 12:23:21;;;;;;;1.58;0.90;;;13.90;99.90;;;;;;4966771;28;20031;-72
2024/03/15 12:25:48;;;;;;;2.97;1.65;;;14.00;99.90;;;;;;4971751;28;20065;-72
2024/03/15 12:28:20;;;;;;;1.42;0.88;;;14.00;99.90;;;;;;4969154;28;20487;-73
2024/03/15 12:30:48;;;;;;;4.28;1.05;;;14.10;99.90;;;;;;4978825;28;20027;-72
2024/03/15 12:33:15;;;;;;;5.15;0.93;;;14.10;99.90;;;;;;4966030;28;20034;-73
2024/03/15 12:35:43;;;;;;;1.45;0.70;;;14.10;99.90;;;;;;4971392;28;20368;-73
2024/03/15 12:38:14;;;;;;;1.02;0.93;;;14.10;99.90;;;;;;4949991;28;20125;-73
2024/03/15 12:40:44;;;;;;;2.08;1.05;;;14.10;99.90;;;;;;4979657;28;20419;-73
2024/03/15 12:43:10;;;;;;;0.93;0.60;;;14.10;99.90;;;;;;4984895;28;20125;-72
2024/03/15 12:45:38;;;;;;;1.95;0.70;;;14.10;99.90;;;;;;4971125;28;20015;-72
2024/03/15 12:48:05;;;;;;;1.75;0.98;;;14.00;99.90;;;;;;4970802;28;20484;-73
2024/03/15 12:50:31;;;;;;;1.30;0.70;;;14.10;99.90;;;;;;4972782;28;20038;-73
2024/03/15 12:52:57;;;;;;;5.40;0.75;;;14.10;99.90;;;;;;4965722;28;20030;-72